sensor_id;sensor_type;location;lat;lon;timestamp;pressure;altitude;pressure_sealevel;temperature;humidity
33554;BME280;19885;42.208;24.952;2023-04-09T00:02:16;100271.69;;;7.58;99.09
33554;BME280;19885;42.208;24.952;2023-04-09T00:04:41;100273.28;;;7.54;98.97
33554;BME280;19885;42.208;24.952;2023-04-09T00:07:07;100265.13;;;7.39;99.87
33554;BME280;19885;42.208;24.952;2023-04-09T00:09:32;100266.72;;;7.34;100.00
33554;BME280;19885;42.208;24.952;2023-04-09T00:11:58;100274.63;;;7.39;100.00
33554;BME280;19885;42.208;24.952;2023-04-09T00:14:23;100265.66;;;7.26;100.00
33554;BME280;19885;42.208;24.952;2023-04-09T00:16:49;100268.13;;;7.22;100.00
33554;BME280;19885;42.208;24.952;2023-04-09T00:19:15;100284.47;;;7.19;100.00
33554;BME280;19885;42.208;24.952;2023-04-09T00:21:41;100277.75;;;7.26;100.00
33554;BME280;19885;42.208;24.952;2023-04-09T00:24:06;100254.75;;;7.06;100.00
33554;BME280;19885;42.208;24.952;2023-04-09T00:26:32;100283.03;;;7.29;100.00
33554;BME280;19885;42.208;24.952;2023-04-09T00:28:57;100268.94;;;7.19;100.00
33554;BME280;19885;42.208;24.952;2023-04-09T00:31:23;100294.16;;;7.25;100.00
33554;BME280;19885;42.208;24.952;2023-04-09T00:33:49;100293.19;;;7.22;100.00
33554;BME280;19885;42.208;24.952;2023-04-09T00:36:14;100285.19;;;7.13;100.00
33554;BME280;19885;42.208;24.952;2023-04-09T00:38:40;100271.66;;;7.24;100.00
33554;BME280;19885;42.208;24.952;2023-04-09T00:41:06;100290.59;;;7.21;100.00
33554;BME280;19885;42.208;24.952;2023-04-09T00:43:35;100284.81;;;7.31;100.00
33554;BME280;19885;42.208;24.952;2023-04-09T00:46:02;100272.31;;;7.16;100.00
33554;BME280;19885;42.208;24.952;2023-04-09T00:48:31;100279.41;;;7.22;100.00
33554;BME280;19885;42.208;24.952;2023-04-09T00:50:58;100296.81;;;7.28;100.00
33554;BME280;19885;42.208;24.952;2023-04-09T00:53:24;100293.63;;;7.38;100.00
33554;BME280;19885;42.208;24.952;2023-04-09T00:55:51;100269.69;;;7.15;100.00
33554;BME280;19885;42.208;24.952;2023-04-09T00:58:18;100280.09;;;7.16;100.00
33554;BME280;19885;42.208;24.952;2023-04-09T01:00:43;100267.03;;;7.13;100.00
33554;BME280;19885;42.208;24.952;2023-04-09T01:03:09;100263.88;;;7.24;100.00
33554;BME280;19885;42.208;24.952;2023-04-09T01:14:26;100283.06;;;7.30;100.00
33554;BME280;19885;42.208;24.952;2023-04-09T01:17:00;100271.31;;;7.11;100.00
33554;BME280;19885;42.208;24.952;2023-04-09T01:19:38;100281.00;;;7.18;100.00
33554;BME280;19885;42.208;24.952;2023-04-09T01:22:13;100287.91;;;7.18;100.00
33554;BME280;19885;42.208;24.952;2023-04-09T01:25:36;100271.19;;;7.07;100.00
33554;BME280;19885;42.208;24.952;2023-04-09T01:30:46;100296.81;;;7.28;100.00
33554;BME280;19885;42.208;24.952;2023-04-09T01:33:13;100292.13;;;7.14;100.00
33554;BME280;19885;42.208;24.952;2023-04-09T01:35:44;100285.16;;;7.12;100.00
33554;BME280;19885;42.208;24.952;2023-04-09T01:38:13;100300.66;;;7.10;100.00
33554;BME280;19885;42.208;24.952;2023-04-09T01:40:39;100281.81;;;7.16;100.00
33554;BME280;19885;42.208;24.952;2023-04-09T01:43:05;100297.31;;;7.14;100.00
33554;BME280;19885;42.208;24.952;2023-04-09T01:45:32;100303.28;;;7.12;100.00
33554;BME280;19885;42.208;24.952;2023-04-09T01:47:58;100297.06;;;7.05;100.00
33554;BME280;19885;42.208;24.952;2023-04-09T01:50:24;100300.22;;;6.95;100.00
33554;BME280;19885;42.208;24.952;2023-04-09T01:52:50;100297.47;;;6.89;100.00
33554;BME280;19885;42.208;24.952;2023-04-09T01:55:16;100306.91;;;6.87;100.00
33554;BME280;19885;42.208;24.952;2023-04-09T01:57:41;100299.78;;;6.79;100.00
33554;BME280;19885;42.208;24.952;2023-04-09T02:00:07;100285.69;;;6.69;100.00
33554;BME280;19885;42.208;24.952;2023-04-09T02:03:04;100311.56;;;6.69;100.00
33554;BME280;19885;42.208;24.952;2023-04-09T02:05:35;100308.97;;;6.69;100.00
33554;BME280;19885;42.208;24.952;2023-04-09T02:08:02;100292.94;;;6.53;100.00
33554;BME280;19885;42.208;24.952;2023-04-09T02:10:30;100303.50;;;6.59;100.00
33554;BME280;19885;42.208;24.952;2023-04-09T02:12:59;100301.44;;;6.47;100.00
33554;BME280;19885;42.208;24.952;2023-04-09T02:15:27;100308.41;;;6.50;100.00
33554;BME280;19885;42.208;24.952;2023-04-09T02:17:55;100301.97;;;6.37;100.00
33554;BME280;19885;42.208;24.952;2023-04-09T02:20:20;100310.47;;;6.33;100.00
33554;BME280;19885;42.208;24.952;2023-04-09T02:22:47;100310.38;;;6.30;100.00
33554;BME280;19885;42.208;24.952;2023-04-09T02:25:13;100315.34;;;6.22;100.00
33554;BME280;19885;42.208;24.952;2023-04-09T02:27:38;100308.88;;;6.10;100.00
33554;BME280;19885;42.208;24.952;2023-04-09T02:30:04;100321.28;;;6.20;100.00
33554;BME280;19885;42.208;24.952;2023-04-09T02:32:30;100325.22;;;6.09;100.00
33554;BME280;19885;42.208;24.952;2023-04-09T02:34:55;100305.72;;;5.92;100.00
33554;BME280;19885;42.208;24.952;2023-04-09T02:37:21;100326.94;;;6.08;100.00
33554;BME280;19885;42.208;24.952;2023-04-09T02:39:46;100338.00;;;6.04;100.00
33554;BME280;19885;42.208;24.952;2023-04-09T02:42:12;100327.16;;;5.89;100.00
33554;BME280;19885;42.208;24.952;2023-04-09T02:44:37;100340.16;;;5.91;100.00
33554;BME280;19885;42.208;24.952;2023-04-09T02:47:03;100329.72;;;5.88;100.00
33554;BME280;19885;42.208;24.952;2023-04-09T02:49:28;100311.44;;;5.83;100.00
33554;BME280;19885;42.208;24.952;2023-04-09T02:51:54;100337.81;;;5.98;100.00
33554;BME280;19885;42.208;24.952;2023-04-09T02:54:19;100326.28;;;5.89;100.00
33554;BME280;19885;42.208;24.952;2023-04-09T02:56:45;100330.69;;;5.91;100.00
33554;BME280;19885;42.208;24.952;2023-04-09T02:59:11;100327.13;;;5.88;100.00
33554;BME280;19885;42.208;24.952;2023-04-09T03:01:36;100329.59;;;5.85;100.00
33554;BME280;19885;42.208;24.952;2023-04-09T03:04:02;100335.81;;;5.90;100.00
33554;BME280;19885;42.208;24.952;2023-04-09T03:06:27;100342.72;;;5.91;100.00
33554;BME280;19885;42.208;24.952;2023-04-09T03:08:53;100323.47;;;5.83;100.00
33554;BME280;19885;42.208;24.952;2023-04-09T03:11:18;100330.53;;;5.87;100.00
33554;BME280;19885;42.208;24.952;2023-04-09T03:13:44;100336.56;;;5.86;100.00
33554;BME280;19885;42.208;24.952;2023-04-09T03:16:09;100342.69;;;5.89;100.00
33554;BME280;19885;42.208;24.952;2023-04-09T03:18:35;100310.97;;;5.69;100.00
33554;BME280;19885;42.208;24.952;2023-04-09T03:21:05;100337.63;;;5.92;100.00
33554;BME280;19885;42.208;24.952;2023-04-09T03:23:32;100332.44;;;5.92;100.00
33554;BME280;19885;42.208;24.952;2023-04-09T03:26:03;100335.94;;;5.93;100.00
33554;BME280;19885;42.208;24.952;2023-04-09T03:28:29;100338.69;;;5.99;100.00
33554;BME280;19885;42.208;24.952;2023-04-09T03:30:55;100335.28;;;6.00;100.00
33554;BME280;19885;42.208;24.952;2023-04-09T03:33:20;100342.25;;;6.02;100.00
33554;BME280;19885;42.208;24.952;2023-04-09T03:35:46;100338.59;;;5.96;100.00
33554;BME280;19885;42.208;24.952;2023-04-09T03:38:12;100337.81;;;5.98;100.00
33554;BME280;19885;42.208;24.952;2023-04-09T03:40:37;100343.38;;;6.10;100.00
33554;BME280;19885;42.208;24.952;2023-04-09T03:43:03;100329.91;;;5.94;100.00
33554;BME280;19885;42.208;24.952;2023-04-09T03:45:28;100315.72;;;5.83;100.00
33554;BME280;19885;42.208;24.952;2023-04-09T03:47:54;100345.53;;;5.97;100.00
33554;BME280;19885;42.208;24.952;2023-04-09T03:50:20;100323.66;;;5.87;100.00
33554;BME280;19885;42.208;24.952;2023-04-09T03:52:45;100345.63;;;6.00;100.00
33554;BME280;19885;42.208;24.952;2023-04-09T03:55:12;100328.06;;;5.90;100.00
33554;BME280;19885;42.208;24.952;2023-04-09T03:57:38;100345.91;;;6.09;100.00
33554;BME280;19885;42.208;24.952;2023-04-09T04:00:04;100340.56;;;6.03;100.00
33554;BME280;19885;42.208;24.952;2023-04-09T04:02:30;100349.34;;;6.08;100.00
33554;BME280;19885;42.208;24.952;2023-04-09T04:05:00;100348.59;;;6.12;100.00
33554;BME280;19885;42.208;24.952;2023-04-09T04:07:26;100347.06;;;6.17;100.00
33554;BME280;19885;42.208;24.952;2023-04-09T04:09:52;100348.75;;;6.16;100.00
33554;BME280;19885;42.208;24.952;2023-04-09T04:12:18;100351.69;;;6.27;100.00
33554;BME280;19885;42.208;24.952;2023-04-09T04:14:43;100363.97;;;6.34;100.00
33554;BME280;19885;42.208;24.952;2023-04-09T04:17:09;100347.59;;;6.33;100.00
33554;BME280;19885;42.208;24.952;2023-04-09T04:19:36;100348.72;;;6.43;100.00
33554;BME280;19885;42.208;24.952;2023-04-09T04:22:01;100363.44;;;6.44;100.00
33554;BME280;19885;42.208;24.952;2023-04-09T04:24:27;100355.50;;;6.38;100.00
33554;BME280;19885;42.208;24.952;2023-04-09T04:26:53;100370.28;;;6.42;100.00
33554;BME280;19885;42.208;24.952;2023-04-09T04:29:20;100371.16;;;6.42;100.00
33554;BME280;19885;42.208;24.952;2023-04-09T04:31:45;100376.41;;;6.45;100.00
33554;BME280;19885;42.208;24.952;2023-04-09T04:34:11;100379.16;;;6.50;100.00
33554;BME280;19885;42.208;24.952;2023-04-09T04:36:37;100377.31;;;6.46;100.00
33554;BME280;19885;42.208;24.952;2023-04-09T04:39:02;100371.09;;;6.41;100.00
33554;BME280;19885;42.208;24.952;2023-04-09T04:41:28;100372.72;;;6.37;100.00
33554;BME280;19885;42.208;24.952;2023-04-09T04:43:54;100383.34;;;6.45;100.00
33554;BME280;19885;42.208;24.952;2023-04-09T04:46:19;100383.63;;;6.54;100.00
33554;BME280;19885;42.208;24.952;2023-04-09T04:48:45;100380.28;;;6.58;100.00
33554;BME280;19885;42.208;24.952;2023-04-09T04:51:11;100379.78;;;6.70;100.00
33554;BME280;19885;42.208;24.952;2023-04-09T04:53:36;100378.03;;;6.70;100.00
33554;BME280;19885;42.208;24.952;2023-04-09T04:56:02;100387.59;;;6.71;100.00
33554;BME280;19885;42.208;24.952;2023-04-09T04:58:28;100376.31;;;6.69;100.00
33554;BME280;19885;42.208;24.952;2023-04-09T05:00:54;100373.84;;;6.74;100.00
33554;BME280;19885;42.208;24.952;2023-04-09T05:03:20;100375.66;;;6.76;100.00
33554;BME280;19885;42.208;24.952;2023-04-09T05:05:45;100377.59;;;6.83;100.00
33554;BME280;19885;42.208;24.952;2023-04-09T05:08:11;100379.53;;;6.90;100.00
33554;BME280;19885;42.208;24.952;2023-04-09T05:10:39;100369.72;;;6.80;100.00
33554;BME280;19885;42.208;24.952;2023-04-09T05:13:05;100377.50;;;6.80;100.00
33554;BME280;19885;42.208;24.952;2023-04-09T05:15:31;100381.56;;;7.00;100.00
33554;BME280;19885;42.208;24.952;2023-04-09T05:17:56;100388.25;;;7.22;100.00
33554;BME280;19885;42.208;24.952;2023-04-09T05:20:22;100382.56;;;7.35;100.00
33554;BME280;19885;42.208;24.952;2023-04-09T05:22:47;100388.03;;;7.46;100.00
33554;BME280;19885;42.208;24.952;2023-04-09T05:25:13;100372.41;;;7.43;100.00
33554;BME280;19885;42.208;24.952;2023-04-09T05:27:40;100366.59;;;7.51;100.00
33554;BME280;19885;42.208;24.952;2023-04-09T05:30:06;100384.06;;;7.58;100.00
33554;BME280;19885;42.208;24.952;2023-04-09T05:32:32;100385.00;;;7.62;100.00
33554;BME280;19885;42.208;24.952;2023-04-09T05:34:57;100364.28;;;7.63;100.00
33554;BME280;19885;42.208;24.952;2023-04-09T05:37:23;100376.81;;;7.78;100.00
33554;BME280;19885;42.208;24.952;2023-04-09T05:39:48;100381.66;;;7.99;100.00
33554;BME280;19885;42.208;24.952;2023-04-09T05:42:14;100372.88;;;7.93;100.00
33554;BME280;19885;42.208;24.952;2023-04-09T05:44:40;100381.66;;;8.31;100.00
33554;BME280;19885;42.208;24.952;2023-04-09T05:47:09;100371.06;;;8.61;100.00
33554;BME280;19885;42.208;24.952;2023-04-09T05:49:35;100362.13;;;8.86;100.00
33554;BME280;19885;42.208;24.952;2023-04-09T05:52:00;100369.31;;;8.99;99.87
33554;BME280;19885;42.208;24.952;2023-04-09T05:54:26;100374.50;;;9.41;98.21
33554;BME280;19885;42.208;24.952;2023-04-09T05:56:51;100376.16;;;9.36;96.00
33554;BME280;19885;42.208;24.952;2023-04-09T05:59:17;100392.84;;;9.06;97.53
33554;BME280;19885;42.208;24.952;2023-04-09T06:01:43;100387.63;;;9.05;98.14
33554;BME280;19885;42.208;24.952;2023-04-09T06:04:08;100350.78;;;9.24;98.43
33554;BME280;19885;42.208;24.952;2023-04-09T06:06:36;100386.13;;;10.07;94.00
33554;BME280;19885;42.208;24.952;2023-04-09T06:09:02;100390.03;;;10.30;92.39
33554;BME280;19885;42.208;24.952;2023-04-09T06:11:30;100397.78;;;10.26;90.64
33554;BME280;19885;42.208;24.952;2023-04-09T06:13:55;100393.53;;;10.32;89.93
33554;BME280;19885;42.208;24.952;2023-04-09T06:16:21;100395.56;;;10.50;89.64
33554;BME280;19885;42.208;24.952;2023-04-09T06:18:47;100377.03;;;10.32;90.07
33554;BME280;19885;42.208;24.952;2023-04-09T06:21:15;100367.09;;;10.10;89.17
33554;BME280;19885;42.208;24.952;2023-04-09T06:23:41;100381.00;;;10.64;87.49
33554;BME280;19885;42.208;24.952;2023-04-09T06:26:07;100394.50;;;10.96;87.04
33554;BME280;19885;42.208;24.952;2023-04-09T06:28:32;100392.78;;;10.98;85.95
33554;BME280;19885;42.208;24.952;2023-04-09T06:30:58;100393.22;;;10.68;85.07
33554;BME280;19885;42.208;24.952;2023-04-09T06:33:23;100394.44;;;10.91;87.16
33554;BME280;19885;42.208;24.952;2023-04-09T06:35:49;100384.97;;;10.39;86.51
33554;BME280;19885;42.208;24.952;2023-04-09T06:38:15;100385.66;;;10.28;89.64
33554;BME280;19885;42.208;24.952;2023-04-09T06:40:41;100368.53;;;10.42;89.18
33554;BME280;19885;42.208;24.952;2023-04-09T06:43:07;100392.50;;;10.77;86.14
33554;BME280;19885;42.208;24.952;2023-04-09T06:45:34;100391.13;;;11.03;88.46
33554;BME280;19885;42.208;24.952;2023-04-09T06:48:00;100390.63;;;11.31;84.33
33554;BME280;19885;42.208;24.952;2023-04-09T06:50:25;100398.94;;;11.03;84.10
33554;BME280;19885;42.208;24.952;2023-04-09T06:52:51;100411.06;;;10.99;86.10
33554;BME280;19885;42.208;24.952;2023-04-09T06:55:17;100383.22;;;10.98;86.11
33554;BME280;19885;42.208;24.952;2023-04-09T06:57:42;100379.59;;;11.56;84.32
33554;BME280;19885;42.208;24.952;2023-04-09T07:00:08;100391.47;;;12.08;83.26
33554;BME280;19885;42.208;24.952;2023-04-09T07:02:35;100395.38;;;12.61;76.51
33554;BME280;19885;42.208;24.952;2023-04-09T07:05:01;100387.47;;;12.49;77.04
33554;BME280;19885;42.208;24.952;2023-04-09T07:07:27;100394.53;;;12.64;78.42
33554;BME280;19885;42.208;24.952;2023-04-09T07:09:53;100386.16;;;11.99;79.58
33554;BME280;19885;42.208;24.952;2023-04-09T07:12:28;100303.88;;;11.53;79.72
33554;BME280;19885;42.208;24.952;2023-04-09T07:15:01;100381.34;;;12.50;77.87
33554;BME280;19885;42.208;24.952;2023-04-09T07:17:28;100382.34;;;12.63;76.97
33554;BME280;19885;42.208;24.952;2023-04-09T07:19:54;100384.09;;;12.67;77.62
33554;BME280;19885;42.208;24.952;2023-04-09T07:22:20;100387.22;;;12.22;78.37
33554;BME280;19885;42.208;24.952;2023-04-09T07:24:49;100384.31;;;11.87;79.20
33554;BME280;19885;42.208;24.952;2023-04-09T07:27:22;100378.59;;;12.32;79.71
33554;BME280;19885;42.208;24.952;2023-04-09T07:29:48;100368.72;;;13.18;73.38
33554;BME280;19885;42.208;24.952;2023-04-09T07:32:14;100374.00;;;13.33;71.35
33554;BME280;19885;42.208;24.952;2023-04-09T07:34:41;100395.91;;;13.56;69.94
33554;BME280;19885;42.208;24.952;2023-04-09T07:37:07;100385.50;;;13.76;70.22
33554;BME280;19885;42.208;24.952;2023-04-09T07:39:33;100387.09;;;13.32;71.42
33554;BME280;19885;42.208;24.952;2023-04-09T07:42:02;100380.00;;;13.05;73.33
33554;BME280;19885;42.208;24.952;2023-04-09T07:44:28;100391.47;;;13.34;74.71
33554;BME280;19885;42.208;24.952;2023-04-09T07:46:53;100408.16;;;13.62;70.67
33554;BME280;19885;42.208;24.952;2023-04-09T07:49:19;100394.16;;;13.57;74.71
33554;BME280;19885;42.208;24.952;2023-04-09T07:51:46;100384.66;;;13.88;70.01
33554;BME280;19885;42.208;24.952;2023-04-09T07:54:11;100388.16;;;14.29;67.52
33554;BME280;19885;42.208;24.952;2023-04-09T07:56:37;100390.81;;;14.50;71.59
33554;BME280;19885;42.208;24.952;2023-04-09T07:59:02;100383.63;;;13.45;72.65
33554;BME280;19885;42.208;24.952;2023-04-09T08:01:28;100376.53;;;13.14;70.86
33554;BME280;19885;42.208;24.952;2023-04-09T08:03:53;100391.41;;;13.22;72.38
33554;BME280;19885;42.208;24.952;2023-04-09T08:06:19;100357.47;;;13.48;72.16
33554;BME280;19885;42.208;24.952;2023-04-09T08:08:44;100380.09;;;13.34;71.95
33554;BME280;19885;42.208;24.952;2023-04-09T08:11:10;100308.47;;;13.06;71.74
33554;BME280;19885;42.208;24.952;2023-04-09T08:13:35;100402.88;;;13.53;71.74
33554;BME280;19885;42.208;24.952;2023-04-09T08:16:01;100388.16;;;14.15;69.93
33554;BME280;19885;42.208;24.952;2023-04-09T08:18:28;100374.22;;;14.56;65.93
33554;BME280;19885;42.208;24.952;2023-04-09T08:20:54;100400.22;;;13.45;68.79
33554;BME280;19885;42.208;24.952;2023-04-09T08:23:20;100397.44;;;13.08;73.54
33554;BME280;19885;42.208;24.952;2023-04-09T08:25:45;100392.47;;;13.80;70.51
33554;BME280;19885;42.208;24.952;2023-04-09T08:28:11;100398.66;;;14.18;66.96
33554;BME280;19885;42.208;24.952;2023-04-09T08:30:36;100400.38;;;14.04;69.32
33554;BME280;19885;42.208;24.952;2023-04-09T08:33:02;100403.00;;;14.06;68.82
33554;BME280;19885;42.208;24.952;2023-04-09T08:35:31;100383.81;;;14.34;69.71
33554;BME280;19885;42.208;24.952;2023-04-09T08:37:58;100331.94;;;12.97;69.23
33554;BME280;19885;42.208;24.952;2023-04-09T08:40:24;100406.38;;;13.61;70.51
33554;BME280;19885;42.208;24.952;2023-04-09T08:42:54;100394.25;;;13.93;72.58
33554;BME280;19885;42.208;24.952;2023-04-09T08:45:22;100378.56;;;14.63;68.85
33554;BME280;19885;42.208;24.952;2023-04-09T08:47:49;100380.97;;;15.29;67.12
33554;BME280;19885;42.208;24.952;2023-04-09T08:50:15;100387.16;;;15.21;64.78
33554;BME280;19885;42.208;24.952;2023-04-09T08:52:41;100322.47;;;15.00;66.27
33554;BME280;19885;42.208;24.952;2023-04-09T08:55:07;100383.47;;;15.68;62.04
33554;BME280;19885;42.208;24.952;2023-04-09T08:57:37;100382.53;;;15.80;62.72
33554;BME280;19885;42.208;24.952;2023-04-09T09:00:03;100383.63;;;15.25;63.80
33554;BME280;19885;42.208;24.952;2023-04-09T09:02:29;100369.22;;;16.03;60.14
33554;BME280;19885;42.208;24.952;2023-04-09T09:04:56;100357.06;;;15.87;62.52
33554;BME280;19885;42.208;24.952;2023-04-09T09:07:26;100373.91;;;15.52;60.17
33554;BME280;19885;42.208;24.952;2023-04-09T09:09:54;100381.06;;;15.14;66.11
33554;BME280;19885;42.208;24.952;2023-04-09T09:12:37;100389.00;;;14.88;66.07
33554;BME280;19885;42.208;24.952;2023-04-09T09:15:05;100364.31;;;15.36;65.67
33554;BME280;19885;42.208;24.952;2023-04-09T09:17:31;100378.03;;;15.99;61.18
33554;BME280;19885;42.208;24.952;2023-04-09T09:19:57;100380.38;;;16.32;62.97
33554;BME280;19885;42.208;24.952;2023-04-09T09:22:23;100384.41;;;16.75;59.96
33554;BME280;19885;42.208;24.952;2023-04-09T09:24:51;100367.50;;;15.99;59.58
33554;BME280;19885;42.208;24.952;2023-04-09T09:27:36;100374.00;;;15.25;60.69
33554;BME280;19885;42.208;24.952;2023-04-09T09:30:05;100360.50;;;15.98;60.73
33554;BME280;19885;42.208;24.952;2023-04-09T09:32:34;100362.69;;;16.54;65.31
33554;BME280;19885;42.208;24.952;2023-04-09T09:35:01;100369.13;;;16.16;58.49
33554;BME280;19885;42.208;24.952;2023-04-09T09:37:28;100355.84;;;16.30;59.45
33554;BME280;19885;42.208;24.952;2023-04-09T09:39:55;100343.94;;;15.84;57.58
33554;BME280;19885;42.208;24.952;2023-04-09T09:42:20;100351.81;;;15.87;59.21
33554;BME280;19885;42.208;24.952;2023-04-09T09:44:46;100360.81;;;16.63;55.84
33554;BME280;19885;42.208;24.952;2023-04-09T09:47:13;100353.41;;;17.00;54.09
33554;BME280;19885;42.208;24.952;2023-04-09T09:49:39;100349.44;;;16.64;52.52
33554;BME280;19885;42.208;24.952;2023-04-09T09:52:09;100342.53;;;16.53;56.20
33554;BME280;19885;42.208;24.952;2023-04-09T09:54:48;100330.38;;;16.35;58.34
33554;BME280;19885;42.208;24.952;2023-04-09T09:57:18;100344.28;;;16.48;58.75
33554;BME280;19885;42.208;24.952;2023-04-09T09:59:53;100334.09;;;17.01;60.54
33554;BME280;19885;42.208;24.952;2023-04-09T10:02:22;100333.16;;;16.18;56.61
33554;BME280;19885;42.208;24.952;2023-04-09T10:04:49;100345.72;;;16.82;54.14
33554;BME280;19885;42.208;24.952;2023-04-09T10:07:19;100331.84;;;17.38;54.58
33554;BME280;19885;42.208;24.952;2023-04-09T10:09:49;100307.34;;;17.31;57.48
33554;BME280;19885;42.208;24.952;2023-04-09T10:12:16;100335.59;;;16.41;56.43
33554;BME280;19885;42.208;24.952;2023-04-09T10:14:43;100333.03;;;16.32;60.32
33554;BME280;19885;42.208;24.952;2023-04-09T10:17:10;100325.16;;;16.29;58.56
33554;BME280;19885;42.208;24.952;2023-04-09T10:19:48;100309.03;;;15.66;57.48
33554;BME280;19885;42.208;24.952;2023-04-09T10:22:17;100316.47;;;16.21;60.85
33554;BME280;19885;42.208;24.952;2023-04-09T10:24:45;100327.66;;;16.44;59.16
33554;BME280;19885;42.208;24.952;2023-04-09T10:27:15;100301.75;;;16.03;58.84
33554;BME280;19885;42.208;24.952;2023-04-09T10:29:46;100311.78;;;16.58;59.68
33554;BME280;19885;42.208;24.952;2023-04-09T10:32:17;100309.81;;;16.75;58.50
33554;BME280;19885;42.208;24.952;2023-04-09T10:34:45;100249.72;;;17.08;53.72
33554;BME280;19885;42.208;24.952;2023-04-09T10:37:16;100305.63;;;16.57;55.18
33554;BME280;19885;42.208;24.952;2023-04-09T10:39:45;100208.03;;;16.75;55.55
33554;BME280;19885;42.208;24.952;2023-04-09T10:42:35;100277.25;;;16.85;53.70
33554;BME280;19885;42.208;24.952;2023-04-09T10:45:12;100287.19;;;17.29;50.58
33554;BME280;19885;42.208;24.952;2023-04-09T10:47:39;100283.84;;;17.18;52.69
33554;BME280;19885;42.208;24.952;2023-04-09T10:50:25;100285.84;;;16.97;48.12
33554;BME280;19885;42.208;24.952;2023-04-09T10:52:56;100263.72;;;17.12;53.37
33554;BME280;19885;42.208;24.952;2023-04-09T10:55:40;100276.19;;;17.01;52.67
33554;BME280;19885;42.208;24.952;2023-04-09T10:58:10;100271.69;;;16.30;52.33
33554;BME280;19885;42.208;24.952;2023-04-09T11:00:38;100269.81;;;16.41;50.46
33554;BME280;19885;42.208;24.952;2023-04-09T11:03:23;100254.94;;;16.38;52.66
33554;BME280;19885;42.208;24.952;2023-04-09T11:06:03;100247.22;;;16.99;49.03
33554;BME280;19885;42.208;24.952;2023-04-09T11:08:35;100247.06;;;17.11;48.94
33554;BME280;19885;42.208;24.952;2023-04-09T11:11:02;100260.22;;;17.11;48.01
33554;BME280;19885;42.208;24.952;2023-04-09T11:13:29;100254.84;;;17.19;50.40
33554;BME280;19885;42.208;24.952;2023-04-09T11:15:56;100257.16;;;17.98;46.46
33554;BME280;19885;42.208;24.952;2023-04-09T11:18:26;100257.03;;;17.49;48.64
33554;BME280;19885;42.208;24.952;2023-04-09T11:20:56;100240.00;;;16.42;47.57
33554;BME280;19885;42.208;24.952;2023-04-09T11:23:23;100241.69;;;16.46;50.17
33554;BME280;19885;42.208;24.952;2023-04-09T11:25:49;100239.91;;;16.53;52.53
33554;BME280;19885;42.208;24.952;2023-04-09T11:28:15;100229.31;;;16.57;52.08
33554;BME280;19885;42.208;24.952;2023-04-09T11:30:41;100229.59;;;17.04;55.60
33554;BME280;19885;42.208;24.952;2023-04-09T11:33:08;100199.53;;;16.55;53.13
33554;BME280;19885;42.208;24.952;2023-04-09T11:35:34;100219.56;;;16.65;52.85
33554;BME280;19885;42.208;24.952;2023-04-09T11:38:05;100207.31;;;16.64;50.75
33554;BME280;19885;42.208;24.952;2023-04-09T11:40:30;100192.75;;;17.01;52.71
33554;BME280;19885;42.208;24.952;2023-04-09T11:42:56;100210.44;;;17.56;49.29
33554;BME280;19885;42.208;24.952;2023-04-09T11:45:27;100210.78;;;17.30;52.74
33554;BME280;19885;42.208;24.952;2023-04-09T11:47:53;100210.44;;;16.93;50.32
33554;BME280;19885;42.208;24.952;2023-04-09T11:50:19;100198.72;;;17.14;50.74
33554;BME280;19885;42.208;24.952;2023-04-09T11:52:46;100205.06;;;16.99;51.71
33554;BME280;19885;42.208;24.952;2023-04-09T11:55:22;100181.66;;;16.80;53.49
33554;BME280;19885;42.208;24.952;2023-04-09T11:57:48;100175.19;;;17.02;51.72
33554;BME280;19885;42.208;24.952;2023-04-09T12:00:16;100196.69;;;17.31;54.51
33554;BME280;19885;42.208;24.952;2023-04-09T12:02:48;100175.72;;;17.80;50.76
33554;BME280;19885;42.208;24.952;2023-04-09T12:05:25;100177.56;;;17.20;49.52
33554;BME280;19885;42.208;24.952;2023-04-09T12:07:59;100185.03;;;16.88;48.31
33554;BME280;19885;42.208;24.952;2023-04-09T12:10:27;100127.81;;;16.36;49.22
33554;BME280;19885;42.208;24.952;2023-04-09T12:12:54;100180.59;;;16.94;46.66
33554;BME280;19885;42.208;24.952;2023-04-09T12:15:21;100169.94;;;17.03;47.34
33554;BME280;19885;42.208;24.952;2023-04-09T12:17:52;100168.13;;;17.05;46.85
33554;BME280;19885;42.208;24.952;2023-04-09T12:23:00;100164.41;;;17.19;48.00
33554;BME280;19885;42.208;24.952;2023-04-09T12:25:28;100158.63;;;17.52;42.58
33554;BME280;19885;42.208;24.952;2023-04-09T12:27:54;100154.34;;;17.97;42.34
33554;BME280;19885;42.208;24.952;2023-04-09T12:30:20;100155.09;;;18.03;44.11
33554;BME280;19885;42.208;24.952;2023-04-09T12:32:45;100148.78;;;17.06;45.54
33554;BME280;19885;42.208;24.952;2023-04-09T12:35:12;100160.44;;;17.47;43.39
33554;BME280;19885;42.208;24.952;2023-04-09T12:37:37;100156.00;;;17.53;43.78
33554;BME280;19885;42.208;24.952;2023-04-09T12:40:03;100153.97;;;17.69;44.93
33554;BME280;19885;42.208;24.952;2023-04-09T12:42:29;100145.72;;;17.34;47.23
33554;BME280;19885;42.208;24.952;2023-04-09T12:44:54;100151.84;;;17.37;45.29
33554;BME280;19885;42.208;24.952;2023-04-09T12:47:19;100138.56;;;17.43;44.51
33554;BME280;19885;42.208;24.952;2023-04-09T12:49:45;100122.06;;;17.32;43.61
33554;BME280;19885;42.208;24.952;2023-04-09T12:52:11;100142.03;;;17.45;45.08
33554;BME280;19885;42.208;24.952;2023-04-09T12:54:37;100127.88;;;16.97;42.89
33554;BME280;19885;42.208;24.952;2023-04-09T12:57:04;100126.47;;;17.29;44.78